Time;durP1;ratioP1;P1;durP2;ratioP2;P2;SDS_P1;SDS_P2;PMS_P1;PMS_P2;Temp;Humidity;BMP_temperature;BMP_pressure;BME280_temperature;BME280_humidity;BME280_pressure;Samples;Min_cycle;Max_cycle;Signal;HPM_P1;HPM_P2
2022/04/06 16:04:38;;;;;;;10.90;5.57;;;18.80;72.30;;;;;;4981955;28;20193;-85
2022/04/06 16:07:04;;;;;;;12.05;5.15;;;19.40;68.30;;;;;;5049072;28;20034;-86
2022/04/06 16:09:32;;;;;;;7.75;4.47;;;19.30;68.40;;;;;;4955200;28;20118;-87
2022/04/06 16:12:06;;;;;;;17.83;4.93;;;19.10;65.90;;;;;;5022103;28;20027;-84
2022/04/06 16:14:35;;;;;;;10.07;5.10;;;18.90;69.70;;;;;;5029304;28;20113;-84
2022/04/06 16:17:05;;;;;;;8.05;4.38;;;18.60;72.20;;;;;;4976783;28;20015;-85
2022/04/06 16:19:31;;;;;;;7.35;3.80;;;19.00;69.80;;;;;;5032207;28;20103;-87
2022/04/06 16:21:58;;;;;;;7.75;4.60;;;18.90;69.10;;;;;;5047607;28;20700;-85
2022/04/06 16:24:25;;;;;;;9.50;5.50;;;18.40;70.30;;;;;;4979775;28;20109;-86
2022/04/06 16:26:51;;;;;;;7.68;4.15;;;18.10;74.30;;;;;;4967954;28;20028;-86
2022/04/06 16:29:17;;;;;;;6.95;3.72;;;18.00;73.60;;;;;;5036665;28;20652;-86
2022/04/06 16:31:46;;;;;;;5.60;3.55;;;17.80;71.60;;;;;;4966552;28;20497;-86
2022/04/06 16:34:12;;;;;;;5.57;3.35;;;17.20;71.70;;;;;;4975397;28;20027;-87
2022/04/06 16:36:59;;;;;;;8.35;3.95;;;16.60;74.40;;;;;;4972675;28;20053;-86
2022/04/06 16:39:25;;;;;;;9.25;4.70;;;16.40;75.30;;;;;;5037896;28;20027;-88
2022/04/06 16:41:52;;;;;;;6.07;4.10;;;16.20;76.20;;;;;;5036610;28;20073;-87
2022/04/06 16:44:18;;;;;;;6.18;4.20;;;15.90;77.30;;;;;;5070129;28;20035;-85
2022/04/06 16:46:52;;;;;;;7.75;3.75;;;15.70;78.20;;;;;;5041518;28;20078;-89
2022/04/06 16:49:19;;;;;;;7.93;4.43;;;15.50;80.40;;;;;;5031416;28;20098;-87
2022/04/06 16:54:35;;;;;;;11.45;4.60;;;15.10;83.50;;;;;;5035886;28;20095;-89
2022/04/06 16:57:09;;;;;;;9.80;3.70;;;14.80;86.00;;;;;;5050285;28;20023;-90
2022/04/06 16:59:35;;;;;;;5.10;2.60;;;14.60;88.20;;;;;;5039614;28;20051;-90
2022/04/06 17:02:46;;;;;;;3.88;2.58;;;14.50;89.90;;;;;;5039275;28;20370;-88
2022/04/06 17:04:51;;;;;;;3.33;2.45;;;14.20;91.00;;;;;;4980034;28;20051;-89
2022/04/06 17:07:17;;;;;;;6.90;2.60;;;14.00;92.40;;;;;;5029548;28;20486;-88
2022/04/06 17:09:53;;;;;;;2.92;2.67;;;13.80;93.30;;;;;;5198787;23;20063;-92
2022/04/06 17:12:21;;;;;;;4.35;2.47;;;13.70;96.30;;;;;;5036836;28;20043;-93
2022/04/06 17:15:09;;;;;;;4.07;3.08;;;13.40;97.10;;;;;;5042455;28;20034;-94
2022/04/06 17:17:43;;;;;;;4.05;2.30;;;13.30;99.90;;;;;;5019941;28;20088;-94
2022/04/06 17:20:30;;;;;;;4.03;3.25;;;13.10;99.90;;;;;;4951425;28;20028;-95
2022/04/06 17:23:20;;;;;;;6.07;3.95;;;13.00;99.90;;;;;;4960222;28;20177;-95
2022/04/06 17:25:52;;;;;;;3.83;2.60;;;13.00;99.90;;;;;;5312674;23;20223;-92
2022/04/06 17:28:53;;;;;;;5.80;4.00;;;13.00;99.90;;;;;;4972347;28;20023;-90
2022/04/06 17:36:24;;;;;;;6.55;4.65;;;12.80;99.90;;;;;;5028739;28;20108;-92
2022/04/06 17:38:52;;;;;;;5.13;3.90;;;12.70;99.90;;;;;;5032948;28;20137;-93
2022/04/06 17:41:20;;;;;;;11.73;4.18;;;12.60;99.90;;;;;;5024979;28;20102;-93
2022/04/06 17:43:47;;;;;;;5.93;2.92;;;12.50;99.90;;;;;;5032317;28;20045;-93
2022/04/06 17:46:17;;;;;;;6.53;4.00;;;12.40;99.90;;;;;;5025192;28;20033;-94
2022/04/06 17:48:45;;;;;;;9.30;4.07;;;12.30;99.90;;;;;;5010419;28;20034;-92
2022/04/06 17:51:14;;;;;;;5.00;3.83;;;12.20;99.90;;;;;;5031493;28;20060;-94
2022/04/06 17:53:53;;;;;;;7.50;3.47;;;12.20;99.90;;;;;;5014305;28;20053;-92
2022/04/06 17:56:35;;;;;;;4.20;3.00;;;12.20;99.90;;;;;;5042971;28;20065;-92
2022/04/06 18:02:01;;;;;;;4.68;2.67;;;12.00;99.90;;;;;;5273046;23;20038;-93
2022/04/06 18:04:40;;;;;;;5.07;2.33;;;12.00;99.90;;;;;;5002835;28;20030;-94
2022/04/06 18:07:13;;;;;;;4.80;2.83;;;11.90;99.90;;;;;;5000010;28;20035;-91
2022/04/06 18:09:49;;;;;;;4.53;2.30;;;11.80;99.90;;;;;;5275088;23;20021;-89
2022/04/06 18:14:59;;;;;;;3.15;2.85;;;11.80;99.90;;;;;;5013419;28;20034;-94
2022/04/06 18:22:47;;;;;;;5.63;3.20;;;11.70;99.90;;;;;;5087358;23;20053;-92
2022/04/06 18:28:17;;;;;;;7.07;4.57;;;11.70;99.90;;;;;;5551720;23;20025;-94
2022/04/06 18:30:45;;;;;;;5.60;2.80;;;11.70;99.90;;;;;;5138668;23;20042;-95
2022/04/06 18:33:21;;;;;;;3.88;2.90;;;11.70;99.90;;;;;;5017055;28;20398;-95
2022/04/06 18:35:51;;;;;;;4.93;2.88;;;11.70;99.90;;;;;;5006180;28;20021;-93
2022/04/06 18:38:21;;;;;;;8.07;4.47;;;11.70;99.90;;;;;;5027217;28;20026;-94
2022/04/06 18:41:13;;;;;;;6.07;3.08;;;11.60;99.90;;;;;;5032853;28;20026;-94
2022/04/06 19:10:14;;;;;;;5.35;3.63;;;11.30;99.90;;;;;;5052006;23;20043;-87
2022/04/06 19:13:05;;;;;;;7.57;4.60;;;11.20;99.90;;;;;;4935153;29;20043;-86
2022/04/06 19:15:35;;;;;;;8.02;4.40;;;11.20;99.90;;;;;;4938566;29;20052;-86
2022/04/06 19:28:24;;;;;;;15.48;9.93;;;10.90;99.90;;;;;;5155066;23;20012;-90
2022/04/06 19:31:04;;;;;;;13.60;9.18;;;10.80;99.90;;;;;;4968405;28;20019;-89
2022/04/06 19:33:33;;;;;;;16.00;8.65;;;10.70;99.90;;;;;;5072494;23;20042;-89
2022/04/06 19:46:17;;;;;;;23.85;17.23;;;10.40;99.90;;;;;;4995916;28;20039;-92
2022/04/06 19:54:12;;;;;;;12.77;9.13;;;10.20;99.90;;;;;;5007985;23;20068;-88
2022/04/06 19:56:44;;;;;;;13.57;8.70;;;10.10;99.90;;;;;;4942153;29;20092;-92
2022/04/06 19:59:17;;;;;;;16.50;8.27;;;10.10;99.90;;;;;;4944160;29;20028;-93
2022/04/06 20:01:49;;;;;;;13.98;8.18;;;10.00;99.90;;;;;;4952860;29;20038;-96
2022/04/06 20:04:20;;;;;;;15.40;9.10;;;9.90;99.90;;;;;;4917489;29;20036;-93
2022/04/06 20:06:55;;;;;;;20.52;9.07;;;9.90;99.90;;;;;;4944045;29;20024;-89
2022/04/06 20:09:41;;;;;;;15.57;9.77;;;9.80;99.90;;;;;;4940869;29;20046;-93
2022/04/06 20:12:07;;;;;;;17.48;11.05;;;9.70;99.90;;;;;;4938398;29;20628;-88
2022/04/06 20:14:34;;;;;;;25.17;18.45;;;9.70;99.90;;;;;;4935651;29;20036;-88
2022/04/06 20:17:00;;;;;;;12.43;7.93;;;9.70;99.90;;;;;;5203468;23;20062;-91
2022/04/06 20:19:31;;;;;;;16.00;9.00;;;9.70;99.90;;;;;;5085287;23;20059;-91
2022/04/06 20:22:00;;;;;;;12.18;9.38;;;9.70;99.90;;;;;;4982866;28;20030;-91
2022/04/06 20:24:27;;;;;;;11.57;7.60;;;9.80;99.90;;;;;;4967350;28;20035;-93
2022/04/06 20:26:53;;;;;;;16.65;7.28;;;9.80;99.90;;;;;;4952512;28;20038;-90
2022/04/06 20:29:48;;;;;;;10.05;5.68;;;9.80;99.90;;;;;;4980425;28;20031;-90
2022/04/06 20:32:17;;;;;;;18.17;6.65;;;9.90;99.90;;;;;;5037671;23;20057;-92
2022/04/06 20:34:54;;;;;;;13.05;6.25;;;9.90;99.90;;;;;;4944780;28;20041;-94
2022/04/06 20:37:43;;;;;;;11.60;6.43;;;9.90;99.90;;;;;;5051841;23;20067;-94
2022/04/06 20:40:09;;;;;;;10.85;6.10;;;9.90;99.90;;;;;;4956048;28;20043;-90
2022/04/06 20:42:36;;;;;;;8.40;5.70;;;9.90;99.90;;;;;;4966390;28;20039;-90
2022/04/06 20:45:03;;;;;;;10.57;5.95;;;9.90;99.90;;;;;;4956580;28;20042;-88
2022/04/06 20:47:31;;;;;;;8.93;5.00;;;9.80;99.90;;;;;;4979160;28;20041;-93
2022/04/06 20:49:57;;;;;;;9.27;5.40;;;9.70;99.90;;;;;;4978143;28;20031;-89
2022/04/06 20:52:28;;;;;;;10.23;5.55;;;9.70;99.90;;;;;;4965240;28;20034;-89
2022/04/06 20:54:53;;;;;;;9.68;5.78;;;9.60;99.90;;;;;;4971084;28;20512;-89
2022/04/06 20:57:22;;;;;;;10.40;6.03;;;9.60;99.90;;;;;;4983896;28;20035;-93
2022/04/06 20:59:54;;;;;;;9.48;5.75;;;9.60;99.90;;;;;;4961141;28;20528;-87
2022/04/06 21:02:20;;;;;;;12.43;6.03;;;9.60;99.90;;;;;;4978968;28;20034;-86
2022/04/06 21:04:46;;;;;;;14.73;6.22;;;9.70;99.90;;;;;;4977682;28;20031;-88
2022/04/06 21:07:12;;;;;;;11.10;6.03;;;9.60;99.90;;;;;;4960859;28;20085;-86
2022/04/06 21:09:38;;;;;;;10.38;6.13;;;9.70;99.90;;;;;;4950951;29;20402;-87
2022/04/06 21:12:26;;;;;;;7.03;4.78;;;9.60;99.90;;;;;;4943916;29;20030;-92
2022/04/06 21:15:03;;;;;;;9.45;4.90;;;9.70;99.90;;;;;;4956151;29;20011;-94
2022/04/06 21:17:29;;;;;;;7.07;4.95;;;9.70;99.90;;;;;;5033640;23;20110;-88
2022/04/06 21:19:56;;;;;;;5.88;4.70;;;9.70;99.90;;;;;;4982890;28;20568;-90
2022/04/06 21:22:22;;;;;;;8.35;5.53;;;9.70;99.90;;;;;;4980392;28;20026;-90
2022/04/06 21:24:51;;;;;;;10.45;7.15;;;9.70;99.90;;;;;;4976148;28;20478;-93
2022/04/06 21:27:16;;;;;;;10.80;7.32;;;9.70;99.90;;;;;;4978097;28;20024;-90
2022/04/06 21:29:54;;;;;;;11.27;7.22;;;9.70;99.90;;;;;;4968493;28;20554;-92
2022/04/06 21:35:13;;;;;;;19.55;8.00;;;9.70;99.90;;;;;;5159672;23;20590;-92
2022/04/06 21:37:54;;;;;;;16.85;6.20;;;9.70;99.90;;;;;;4966300;28;20026;-93
2022/04/06 21:40:46;;;;;;;11.38;5.50;;;9.80;99.90;;;;;;4956546;28;20085;-91
2022/04/06 21:43:41;;;;;;;23.15;5.93;;;9.80;99.90;;;;;;4964878;28;20023;-91
2022/04/06 21:46:09;;;;;;;13.35;5.80;;;9.80;99.90;;;;;;4972898;28;20031;-92
2022/04/06 21:48:42;;;;;;;10.63;5.35;;;9.80;99.90;;;;;;4966306;28;20069;-90
2022/04/06 21:51:11;;;;;;;;;;;9.80;99.90;;;;;;4970165;28;20054;-94
2022/04/06 21:54:03;;;;;;;13.02;5.65;;;9.80;99.90;;;;;;4957920;28;19906;-91
2022/04/06 21:59:25;;;;;;;11.48;5.30;;;9.80;99.90;;;;;;4980046;28;20373;-96
2022/04/06 22:02:42;;;;;;;8.45;5.38;;;9.70;99.90;;;;;;4967915;28;20039;-96
2022/04/06 22:04:54;;;;;;;7.22;4.97;;;9.70;99.90;;;;;;4972231;28;20531;-96
2022/04/06 22:07:52;;;;;;;11.00;5.18;;;9.80;99.90;;;;;;4980562;28;20035;-94
2022/04/06 22:20:17;;;;;;;10.57;4.72;;;9.80;99.90;;;;;;4875711;28;20543;-96
2022/04/06 22:23:09;;;;;;;7.00;4.93;;;9.80;99.90;;;;;;4967375;28;20054;-95
2022/04/06 22:26:10;;;;;;;6.70;4.78;;;9.80;99.90;;;;;;4963954;28;20039;-94
2022/04/06 22:32:11;;;;;;;7.97;4.90;;;9.80;99.90;;;;;;4874414;29;20124;-96
2022/04/06 22:35:25;;;;;;;9.02;4.95;;;9.80;99.90;;;;;;4898732;28;20131;-96
2022/04/06 22:37:47;;;;;;;9.02;5.53;;;9.70;99.90;;;;;;4963822;28;20068;-94
2022/04/06 22:40:35;;;;;;;10.27;5.53;;;9.70;99.90;;;;;;4945620;29;20043;-96
2022/04/06 22:57:02;;;;;;;6.30;5.18;;;9.60;99.90;;;;;;4861987;29;20081;-96
2022/04/06 23:03:20;;;;;;;7.60;5.10;;;9.60;99.90;;;;;;4851220;29;20173;-96
2022/04/06 23:06:09;;;;;;;8.95;4.93;;;9.60;99.90;;;;;;4890226;29;20040;-95
2022/04/06 23:39:58;;;;;;;;;;;;;;;;;;;;;
